sensor_id;sensor_type;location;lat;lon;timestamp;temperature;humidity
17415;DHT22;8825;48.086;16.426;2023-08-06T00:00:06;19.10;79.50
17415;DHT22;8825;48.086;16.426;2023-08-06T00:02:35;19.10;79.40
17415;DHT22;8825;48.086;16.426;2023-08-06T00:05:02;19.10;79.30
17415;DHT22;8825;48.086;16.426;2023-08-06T00:07:30;19.10;79.20
17415;DHT22;8825;48.086;16.426;2023-08-06T00:09:57;19.10;79.20
17415;DHT22;8825;48.086;16.426;2023-08-06T00:12:25;19.00;79.00
17415;DHT22;8825;48.086;16.426;2023-08-06T00:14:53;19.00;79.00
17415;DHT22;8825;48.086;16.426;2023-08-06T00:17:20;19.00;79.00
17415;DHT22;8825;48.086;16.426;2023-08-06T00:19:48;19.00;79.00
17415;DHT22;8825;48.086;16.426;2023-08-06T00:22:15;19.00;79.10
17415;DHT22;8825;48.086;16.426;2023-08-06T00:24:43;18.90;79.10
17415;DHT22;8825;48.086;16.426;2023-08-06T00:27:10;18.90;79.10
17415;DHT22;8825;48.086;16.426;2023-08-06T00:29:38;18.90;79.30
17415;DHT22;8825;48.086;16.426;2023-08-06T00:32:06;18.90;79.40
17415;DHT22;8825;48.086;16.426;2023-08-06T00:34:33;18.90;79.40
17415;DHT22;8825;48.086;16.426;2023-08-06T00:37:01;18.90;79.50
17415;DHT22;8825;48.086;16.426;2023-08-06T00:39:28;18.80;79.50
17415;DHT22;8825;48.086;16.426;2023-08-06T00:41:56;18.80;79.60
17415;DHT22;8825;48.086;16.426;2023-08-06T00:44:24;18.80;79.70
17415;DHT22;8825;48.086;16.426;2023-08-06T00:46:52;18.80;79.90
17415;DHT22;8825;48.086;16.426;2023-08-06T00:49:20;18.80;79.90
17415;DHT22;8825;48.086;16.426;2023-08-06T00:51:48;18.70;80.00
17415;DHT22;8825;48.086;16.426;2023-08-06T00:54:16;18.70;80.00
17415;DHT22;8825;48.086;16.426;2023-08-06T00:56:44;18.70;80.10
17415;DHT22;8825;48.086;16.426;2023-08-06T00:59:13;18.70;80.20
17415;DHT22;8825;48.086;16.426;2023-08-06T01:01:40;18.70;80.20
17415;DHT22;8825;48.086;16.426;2023-08-06T01:04:08;18.60;80.90
17415;DHT22;8825;48.086;16.426;2023-08-06T01:09:27;18.60;80.30
17415;DHT22;8825;48.086;16.426;2023-08-06T01:12:08;18.60;80.30
17415;DHT22;8825;48.086;16.426;2023-08-06T01:14:45;18.60;80.40
17415;DHT22;8825;48.086;16.426;2023-08-06T01:17:08;18.50;80.30
17415;DHT22;8825;48.086;16.426;2023-08-06T01:19:37;18.50;80.30
17415;DHT22;8825;48.086;16.426;2023-08-06T01:22:04;18.50;80.40
17415;DHT22;8825;48.086;16.426;2023-08-06T01:24:32;18.50;80.40
17415;DHT22;8825;48.086;16.426;2023-08-06T01:27:06;18.50;80.30
17415;DHT22;8825;48.086;16.426;2023-08-06T01:29:39;18.50;80.40
17415;DHT22;8825;48.086;16.426;2023-08-06T01:32:08;18.50;80.30
17415;DHT22;8825;48.086;16.426;2023-08-06T01:34:40;18.50;80.30
17415;DHT22;8825;48.086;16.426;2023-08-06T01:37:08;18.50;80.40
17415;DHT22;8825;48.086;16.426;2023-08-06T01:39:36;18.50;80.30
17415;DHT22;8825;48.086;16.426;2023-08-06T01:42:04;18.50;80.30
17415;DHT22;8825;48.086;16.426;2023-08-06T01:44:31;18.50;80.20
17415;DHT22;8825;48.086;16.426;2023-08-06T01:46:59;18.50;80.30
17415;DHT22;8825;48.086;16.426;2023-08-06T01:49:26;18.50;80.20
17415;DHT22;8825;48.086;16.426;2023-08-06T01:51:54;18.50;80.20
17415;DHT22;8825;48.086;16.426;2023-08-06T01:54:21;18.50;80.00
17415;DHT22;8825;48.086;16.426;2023-08-06T01:56:49;18.50;80.00
17415;DHT22;8825;48.086;16.426;2023-08-06T01:59:16;18.50;80.10
17415;DHT22;8825;48.086;16.426;2023-08-06T02:01:44;18.50;80.00
17415;DHT22;8825;48.086;16.426;2023-08-06T02:04:12;18.50;80.00
17415;DHT22;8825;48.086;16.426;2023-08-06T02:06:39;18.50;79.90
17415;DHT22;8825;48.086;16.426;2023-08-06T02:09:07;18.50;79.70
17415;DHT22;8825;48.086;16.426;2023-08-06T02:11:34;18.50;79.70
17415;DHT22;8825;48.086;16.426;2023-08-06T02:14:02;18.50;79.70
17415;DHT22;8825;48.086;16.426;2023-08-06T02:16:29;18.50;79.80
17415;DHT22;8825;48.086;16.426;2023-08-06T02:18:57;18.50;79.60
17415;DHT22;8825;48.086;16.426;2023-08-06T02:21:24;18.50;79.50
17415;DHT22;8825;48.086;16.426;2023-08-06T02:23:52;18.50;79.50
17415;DHT22;8825;48.086;16.426;2023-08-06T02:26:19;18.50;79.50
17415;DHT22;8825;48.086;16.426;2023-08-06T02:28:47;18.50;79.40
17415;DHT22;8825;48.086;16.426;2023-08-06T02:31:14;18.40;79.30
17415;DHT22;8825;48.086;16.426;2023-08-06T02:33:42;18.40;79.30
17415;DHT22;8825;48.086;16.426;2023-08-06T02:36:09;18.40;79.40
17415;DHT22;8825;48.086;16.426;2023-08-06T02:38:37;18.40;79.30
17415;DHT22;8825;48.086;16.426;2023-08-06T02:41:05;18.40;79.30
17415;DHT22;8825;48.086;16.426;2023-08-06T02:43:32;18.40;79.20
17415;DHT22;8825;48.086;16.426;2023-08-06T02:46:00;18.40;79.20
17415;DHT22;8825;48.086;16.426;2023-08-06T02:48:28;18.40;79.20
17415;DHT22;8825;48.086;16.426;2023-08-06T02:50:59;18.40;79.00
17415;DHT22;8825;48.086;16.426;2023-08-06T02:53:27;18.40;79.00
17415;DHT22;8825;48.086;16.426;2023-08-06T02:55:54;18.40;78.80
17415;DHT22;8825;48.086;16.426;2023-08-06T02:58:22;18.40;78.70
17415;DHT22;8825;48.086;16.426;2023-08-06T03:01:00;18.40;78.60
17415;DHT22;8825;48.086;16.426;2023-08-06T03:03:30;18.40;78.50
17415;DHT22;8825;48.086;16.426;2023-08-06T03:05:58;18.50;78.60
17415;DHT22;8825;48.086;16.426;2023-08-06T03:08:25;18.50;79.20
17415;DHT22;8825;48.086;16.426;2023-08-06T03:10:53;18.50;78.10
17415;DHT22;8825;48.086;16.426;2023-08-06T03:13:21;18.50;78.00
17415;DHT22;8825;48.086;16.426;2023-08-06T03:15:56;18.50;77.80
17415;DHT22;8825;48.086;16.426;2023-08-06T03:18:24;18.50;77.70
17415;DHT22;8825;48.086;16.426;2023-08-06T03:20:54;18.50;77.60
17415;DHT22;8825;48.086;16.426;2023-08-06T03:23:22;18.50;77.50
17415;DHT22;8825;48.086;16.426;2023-08-06T03:25:49;18.50;77.50
17415;DHT22;8825;48.086;16.426;2023-08-06T03:28:17;18.50;77.40
17415;DHT22;8825;48.086;16.426;2023-08-06T03:30:44;18.50;78.10
17415;DHT22;8825;48.086;16.426;2023-08-06T03:33:12;18.50;77.20
17415;DHT22;8825;48.086;16.426;2023-08-06T03:35:39;18.50;77.20
17415;DHT22;8825;48.086;16.426;2023-08-06T03:38:07;18.50;77.10
17415;DHT22;8825;48.086;16.426;2023-08-06T03:40:35;18.50;77.10
17415;DHT22;8825;48.086;16.426;2023-08-06T03:43:03;18.50;77.80
17415;DHT22;8825;48.086;16.426;2023-08-06T03:45:30;18.50;77.00
17415;DHT22;8825;48.086;16.426;2023-08-06T03:47:58;18.60;77.00
17415;DHT22;8825;48.086;16.426;2023-08-06T03:50:25;18.60;76.90
17415;DHT22;8825;48.086;16.426;2023-08-06T03:52:53;18.60;77.00
17415;DHT22;8825;48.086;16.426;2023-08-06T03:55:20;18.60;76.90
17415;DHT22;8825;48.086;16.426;2023-08-06T03:57:48;18.60;76.90
17415;DHT22;8825;48.086;16.426;2023-08-06T04:00:16;18.60;76.80
17415;DHT22;8825;48.086;16.426;2023-08-06T04:02:43;18.60;76.70
17415;DHT22;8825;48.086;16.426;2023-08-06T04:05:11;18.60;76.80
17415;DHT22;8825;48.086;16.426;2023-08-06T04:07:39;18.60;76.60
17415;DHT22;8825;48.086;16.426;2023-08-06T04:10:06;18.60;76.60
17415;DHT22;8825;48.086;16.426;2023-08-06T04:12:34;18.60;77.20
17415;DHT22;8825;48.086;16.426;2023-08-06T04:15:06;18.60;76.40
17415;DHT22;8825;48.086;16.426;2023-08-06T04:17:34;18.60;76.40
17415;DHT22;8825;48.086;16.426;2023-08-06T04:20:02;18.60;76.40
17415;DHT22;8825;48.086;16.426;2023-08-06T04:22:29;18.70;76.40
17415;DHT22;8825;48.086;16.426;2023-08-06T04:24:57;18.70;76.40
17415;DHT22;8825;48.086;16.426;2023-08-06T04:27:24;18.70;76.30
17415;DHT22;8825;48.086;16.426;2023-08-06T04:29:52;18.70;76.20
17415;DHT22;8825;48.086;16.426;2023-08-06T04:32:19;18.70;76.10
17415;DHT22;8825;48.086;16.426;2023-08-06T04:34:47;18.70;75.90
17415;DHT22;8825;48.086;16.426;2023-08-06T04:37:15;18.70;75.90
17415;DHT22;8825;48.086;16.426;2023-08-06T04:39:42;18.70;75.90
17415;DHT22;8825;48.086;16.426;2023-08-06T04:42:10;18.70;75.80
17415;DHT22;8825;48.086;16.426;2023-08-06T04:44:37;18.70;75.60
17415;DHT22;8825;48.086;16.426;2023-08-06T04:47:05;18.70;76.00
17415;DHT22;8825;48.086;16.426;2023-08-06T04:49:32;18.70;75.20
17415;DHT22;8825;48.086;16.426;2023-08-06T04:52:00;18.70;75.40
17415;DHT22;8825;48.086;16.426;2023-08-06T04:54:27;18.80;75.50
17415;DHT22;8825;48.086;16.426;2023-08-06T04:56:55;18.70;75.30
17415;DHT22;8825;48.086;16.426;2023-08-06T04:59:22;18.80;75.40
17415;DHT22;8825;48.086;16.426;2023-08-06T05:01:50;18.80;75.40
17415;DHT22;8825;48.086;16.426;2023-08-06T05:04:17;18.80;75.20
17415;DHT22;8825;48.086;16.426;2023-08-06T05:06:45;18.80;75.20
17415;DHT22;8825;48.086;16.426;2023-08-06T05:09:12;18.80;75.20
17415;DHT22;8825;48.086;16.426;2023-08-06T05:11:40;18.80;75.30
17415;DHT22;8825;48.086;16.426;2023-08-06T05:14:07;18.80;75.20
17415;DHT22;8825;48.086;16.426;2023-08-06T05:16:35;18.90;75.20
17415;DHT22;8825;48.086;16.426;2023-08-06T05:19:02;18.90;75.00
17415;DHT22;8825;48.086;16.426;2023-08-06T05:21:30;18.90;75.00
17415;DHT22;8825;48.086;16.426;2023-08-06T05:23:57;18.90;75.00
17415;DHT22;8825;48.086;16.426;2023-08-06T05:26:25;18.90;75.00
17415;DHT22;8825;48.086;16.426;2023-08-06T05:28:52;18.80;74.80
17415;DHT22;8825;48.086;16.426;2023-08-06T05:31:20;18.90;74.70
17415;DHT22;8825;48.086;16.426;2023-08-06T05:33:47;18.90;75.40
17415;DHT22;8825;48.086;16.426;2023-08-06T05:36:15;18.90;74.50
17415;DHT22;8825;48.086;16.426;2023-08-06T05:38:44;18.90;74.60
17415;DHT22;8825;48.086;16.426;2023-08-06T05:41:11;18.90;74.40
17415;DHT22;8825;48.086;16.426;2023-08-06T05:43:39;18.90;74.30
17415;DHT22;8825;48.086;16.426;2023-08-06T05:46:06;18.90;74.30
17415;DHT22;8825;48.086;16.426;2023-08-06T05:48:34;19.00;74.20
17415;DHT22;8825;48.086;16.426;2023-08-06T05:51:02;19.00;74.20
17415;DHT22;8825;48.086;16.426;2023-08-06T05:53:29;19.00;73.90
17415;DHT22;8825;48.086;16.426;2023-08-06T05:55:57;19.00;74.00
17415;DHT22;8825;48.086;16.426;2023-08-06T05:58:24;19.00;73.60
17415;DHT22;8825;48.086;16.426;2023-08-06T06:00:53;19.00;73.70
17415;DHT22;8825;48.086;16.426;2023-08-06T06:03:21;19.00;73.70
17415;DHT22;8825;48.086;16.426;2023-08-06T06:05:48;19.00;73.60
17415;DHT22;8825;48.086;16.426;2023-08-06T06:08:16;19.00;73.50
17415;DHT22;8825;48.086;16.426;2023-08-06T06:10:43;19.10;73.40
17415;DHT22;8825;48.086;16.426;2023-08-06T06:13:11;19.10;73.30
17415;DHT22;8825;48.086;16.426;2023-08-06T06:15:38;19.10;73.20
17415;DHT22;8825;48.086;16.426;2023-08-06T06:18:06;19.10;73.90
17415;DHT22;8825;48.086;16.426;2023-08-06T06:20:33;19.10;73.00
17415;DHT22;8825;48.086;16.426;2023-08-06T06:23:01;19.20;73.00
17415;DHT22;8825;48.086;16.426;2023-08-06T06:25:28;19.20;72.90
17415;DHT22;8825;48.086;16.426;2023-08-06T06:27:56;19.20;72.70
17415;DHT22;8825;48.086;16.426;2023-08-06T06:30:25;19.30;72.80
17415;DHT22;8825;48.086;16.426;2023-08-06T06:32:52;19.30;72.90
17415;DHT22;8825;48.086;16.426;2023-08-06T06:35:20;19.30;72.60
17415;DHT22;8825;48.086;16.426;2023-08-06T06:37:47;19.30;72.50
17415;DHT22;8825;48.086;16.426;2023-08-06T06:40:15;19.40;72.50
17415;DHT22;8825;48.086;16.426;2023-08-06T06:42:43;19.40;72.30
17415;DHT22;8825;48.086;16.426;2023-08-06T06:45:10;19.40;72.20
17415;DHT22;8825;48.086;16.426;2023-08-06T06:47:38;19.40;72.30
17415;DHT22;8825;48.086;16.426;2023-08-06T06:50:06;19.50;72.30
17415;DHT22;8825;48.086;16.426;2023-08-06T06:52:34;19.50;71.60
17415;DHT22;8825;48.086;16.426;2023-08-06T06:55:01;19.50;72.20
17415;DHT22;8825;48.086;16.426;2023-08-06T06:57:29;19.60;72.20
17415;DHT22;8825;48.086;16.426;2023-08-06T06:59:56;19.60;72.10
17415;DHT22;8825;48.086;16.426;2023-08-06T07:02:24;19.60;72.10
17415;DHT22;8825;48.086;16.426;2023-08-06T07:04:51;19.60;72.10
17415;DHT22;8825;48.086;16.426;2023-08-06T07:07:19;19.70;71.90
17415;DHT22;8825;48.086;16.426;2023-08-06T07:09:46;19.70;71.90
17415;DHT22;8825;48.086;16.426;2023-08-06T07:12:14;19.70;71.80
17415;DHT22;8825;48.086;16.426;2023-08-06T07:14:42;19.70;71.90
17415;DHT22;8825;48.086;16.426;2023-08-06T07:17:09;19.80;71.90
17415;DHT22;8825;48.086;16.426;2023-08-06T07:19:37;19.80;71.70
17415;DHT22;8825;48.086;16.426;2023-08-06T07:22:04;19.90;71.60
17415;DHT22;8825;48.086;16.426;2023-08-06T07:24:32;19.90;71.70
17415;DHT22;8825;48.086;16.426;2023-08-06T07:26:59;20.00;71.40
17415;DHT22;8825;48.086;16.426;2023-08-06T07:29:27;20.00;71.20
17415;DHT22;8825;48.086;16.426;2023-08-06T07:31:55;20.00;70.90
17415;DHT22;8825;48.086;16.426;2023-08-06T07:34:22;20.00;70.70
17415;DHT22;8825;48.086;16.426;2023-08-06T07:36:50;20.10;70.70
17415;DHT22;8825;48.086;16.426;2023-08-06T07:39:17;20.10;70.50
17415;DHT22;8825;48.086;16.426;2023-08-06T07:41:45;20.20;70.50
17415;DHT22;8825;48.086;16.426;2023-08-06T07:44:12;20.30;70.40
17415;DHT22;8825;48.086;16.426;2023-08-06T07:46:40;20.30;70.00
17415;DHT22;8825;48.086;16.426;2023-08-06T07:49:08;20.40;69.40
17415;DHT22;8825;48.086;16.426;2023-08-06T07:51:37;20.40;69.30
17415;DHT22;8825;48.086;16.426;2023-08-06T07:54:06;20.50;69.30
17415;DHT22;8825;48.086;16.426;2023-08-06T07:56:34;20.50;69.20
17415;DHT22;8825;48.086;16.426;2023-08-06T07:59:03;20.60;68.80
17415;DHT22;8825;48.086;16.426;2023-08-06T08:01:30;20.60;68.60
17415;DHT22;8825;48.086;16.426;2023-08-06T08:03:58;20.60;68.10
17415;DHT22;8825;48.086;16.426;2023-08-06T08:06:26;20.60;67.70
17415;DHT22;8825;48.086;16.426;2023-08-06T08:08:53;20.60;67.30
17415;DHT22;8825;48.086;16.426;2023-08-06T08:11:21;20.60;66.60
17415;DHT22;8825;48.086;16.426;2023-08-06T08:13:48;20.60;66.60
17415;DHT22;8825;48.086;16.426;2023-08-06T08:16:16;20.60;66.50
17415;DHT22;8825;48.086;16.426;2023-08-06T08:18:43;20.50;66.20
17415;DHT22;8825;48.086;16.426;2023-08-06T08:21:11;20.50;66.40
17415;DHT22;8825;48.086;16.426;2023-08-06T08:23:38;20.50;66.50
17415;DHT22;8825;48.086;16.426;2023-08-06T08:26:07;20.50;66.60
17415;DHT22;8825;48.086;16.426;2023-08-06T08:28:35;20.40;66.50
17415;DHT22;8825;48.086;16.426;2023-08-06T08:31:02;20.40;66.20
17415;DHT22;8825;48.086;16.426;2023-08-06T08:33:30;20.30;66.20
17415;DHT22;8825;48.086;16.426;2023-08-06T08:35:57;20.30;66.30
17415;DHT22;8825;48.086;16.426;2023-08-06T08:38:25;20.30;66.30
17415;DHT22;8825;48.086;16.426;2023-08-06T08:40:54;20.30;66.30
17415;DHT22;8825;48.086;16.426;2023-08-06T08:43:22;20.30;66.20
17415;DHT22;8825;48.086;16.426;2023-08-06T08:45:51;20.20;66.00
17415;DHT22;8825;48.086;16.426;2023-08-06T08:48:21;20.20;66.00
17415;DHT22;8825;48.086;16.426;2023-08-06T08:50:50;20.20;66.30
17415;DHT22;8825;48.086;16.426;2023-08-06T08:53:18;20.20;66.40
17415;DHT22;8825;48.086;16.426;2023-08-06T08:55:48;20.20;66.30
17415;DHT22;8825;48.086;16.426;2023-08-06T08:58:16;20.20;66.40
17415;DHT22;8825;48.086;16.426;2023-08-06T09:00:45;20.10;66.70
17415;DHT22;8825;48.086;16.426;2023-08-06T09:03:15;20.10;67.00
17415;DHT22;8825;48.086;16.426;2023-08-06T09:05:48;20.20;66.80
17415;DHT22;8825;48.086;16.426;2023-08-06T09:08:18;20.20;66.90
17415;DHT22;8825;48.086;16.426;2023-08-06T09:10:49;20.30;66.80
17415;DHT22;8825;48.086;16.426;2023-08-06T09:13:18;20.30;66.70
17415;DHT22;8825;48.086;16.426;2023-08-06T09:15:47;20.30;66.60
17415;DHT22;8825;48.086;16.426;2023-08-06T09:18:24;20.20;66.50
17415;DHT22;8825;48.086;16.426;2023-08-06T09:20:48;20.20;66.60
17415;DHT22;8825;48.086;16.426;2023-08-06T09:23:16;20.20;66.90
17415;DHT22;8825;48.086;16.426;2023-08-06T09:25:43;20.10;67.00
17415;DHT22;8825;48.086;16.426;2023-08-06T09:28:11;20.10;67.10
17415;DHT22;8825;48.086;16.426;2023-08-06T09:30:39;20.10;67.70
17415;DHT22;8825;48.086;16.426;2023-08-06T09:33:08;20.20;67.40
17415;DHT22;8825;48.086;16.426;2023-08-06T09:35:38;20.20;67.40
17415;DHT22;8825;48.086;16.426;2023-08-06T09:38:06;20.20;67.30
17415;DHT22;8825;48.086;16.426;2023-08-06T09:40:35;20.10;67.20
17415;DHT22;8825;48.086;16.426;2023-08-06T09:43:03;20.10;67.60
17415;DHT22;8825;48.086;16.426;2023-08-06T09:45:35;20.00;67.60
17415;DHT22;8825;48.086;16.426;2023-08-06T09:48:05;20.00;67.90
17415;DHT22;8825;48.086;16.426;2023-08-06T09:50:37;19.90;68.10
17415;DHT22;8825;48.086;16.426;2023-08-06T09:53:06;19.90;68.60
17415;DHT22;8825;48.086;16.426;2023-08-06T09:55:37;19.80;69.00
17415;DHT22;8825;48.086;16.426;2023-08-06T09:58:05;19.80;69.40
17415;DHT22;8825;48.086;16.426;2023-08-06T10:00:34;19.80;69.50
17415;DHT22;8825;48.086;16.426;2023-08-06T10:03:01;19.80;69.80
17415;DHT22;8825;48.086;16.426;2023-08-06T10:05:30;19.70;70.20
17415;DHT22;8825;48.086;16.426;2023-08-06T10:07:59;19.70;70.70
17415;DHT22;8825;48.086;16.426;2023-08-06T10:10:30;19.60;71.00
17415;DHT22;8825;48.086;16.426;2023-08-06T10:12:59;19.50;71.50
17415;DHT22;8825;48.086;16.426;2023-08-06T10:15:30;19.50;72.20
17415;DHT22;8825;48.086;16.426;2023-08-06T10:17:59;19.50;72.50
17415;DHT22;8825;48.086;16.426;2023-08-06T10:20:33;19.50;72.70
17415;DHT22;8825;48.086;16.426;2023-08-06T10:23:05;19.50;72.90
17415;DHT22;8825;48.086;16.426;2023-08-06T10:25:35;19.50;73.20
17415;DHT22;8825;48.086;16.426;2023-08-06T10:28:10;19.50;73.20
17415;DHT22;8825;48.086;16.426;2023-08-06T10:30:46;19.50;73.30
17415;DHT22;8825;48.086;16.426;2023-08-06T10:33:14;19.50;73.40
17415;DHT22;8825;48.086;16.426;2023-08-06T10:35:45;19.50;73.60
17415;DHT22;8825;48.086;16.426;2023-08-06T10:38:22;19.40;73.60
17415;DHT22;8825;48.086;16.426;2023-08-06T10:43:28;19.40;73.70
17415;DHT22;8825;48.086;16.426;2023-08-06T10:45:57;19.50;73.80
17415;DHT22;8825;48.086;16.426;2023-08-06T10:51:10;19.50;73.90
17415;DHT22;8825;48.086;16.426;2023-08-06T10:53:35;19.50;73.90
17415;DHT22;8825;48.086;16.426;2023-08-06T10:56:26;19.60;74.20
17415;DHT22;8825;48.086;16.426;2023-08-06T10:58:34;19.60;74.10
17415;DHT22;8825;48.086;16.426;2023-08-06T11:01:01;19.70;73.90
17415;DHT22;8825;48.086;16.426;2023-08-06T11:03:29;19.70;73.50
17415;DHT22;8825;48.086;16.426;2023-08-06T11:05:56;19.80;73.50
17415;DHT22;8825;48.086;16.426;2023-08-06T11:08:26;19.80;73.40
17415;DHT22;8825;48.086;16.426;2023-08-06T11:10:54;19.80;73.30
17415;DHT22;8825;48.086;16.426;2023-08-06T11:13:21;19.90;73.30
17415;DHT22;8825;48.086;16.426;2023-08-06T11:15:49;20.00;73.20
17415;DHT22;8825;48.086;16.426;2023-08-06T11:18:17;20.10;73.20
17415;DHT22;8825;48.086;16.426;2023-08-06T11:20:45;20.20;73.00
17415;DHT22;8825;48.086;16.426;2023-08-06T11:23:13;20.20;72.50
17415;DHT22;8825;48.086;16.426;2023-08-06T11:25:45;20.30;72.20
17415;DHT22;8825;48.086;16.426;2023-08-06T11:28:13;20.30;71.30
17415;DHT22;8825;48.086;16.426;2023-08-06T11:30:40;20.40;70.90
17415;DHT22;8825;48.086;16.426;2023-08-06T11:33:08;20.50;70.10
17415;DHT22;8825;48.086;16.426;2023-08-06T11:35:36;20.50;69.60
17415;DHT22;8825;48.086;16.426;2023-08-06T11:38:04;20.40;69.10
17415;DHT22;8825;48.086;16.426;2023-08-06T11:40:32;20.40;68.50
17415;DHT22;8825;48.086;16.426;2023-08-06T11:43:00;20.30;68.40
17415;DHT22;8825;48.086;16.426;2023-08-06T11:45:28;20.30;68.20
17415;DHT22;8825;48.086;16.426;2023-08-06T11:47:55;20.30;68.30
17415;DHT22;8825;48.086;16.426;2023-08-06T11:50:25;20.30;68.00
17415;DHT22;8825;48.086;16.426;2023-08-06T11:52:57;20.20;67.90
17415;DHT22;8825;48.086;16.426;2023-08-06T11:55:26;20.20;68.00
17415;DHT22;8825;48.086;16.426;2023-08-06T11:57:55;20.20;67.90
17415;DHT22;8825;48.086;16.426;2023-08-06T12:00:24;20.10;67.80
17415;DHT22;8825;48.086;16.426;2023-08-06T12:03:12;20.10;68.00
17415;DHT22;8825;48.086;16.426;2023-08-06T12:05:39;20.10;68.20
17415;DHT22;8825;48.086;16.426;2023-08-06T12:08:08;20.10;68.20
17415;DHT22;8825;48.086;16.426;2023-08-06T12:10:36;20.10;68.40
17415;DHT22;8825;48.086;16.426;2023-08-06T12:13:03;20.00;68.40
17415;DHT22;8825;48.086;16.426;2023-08-06T12:15:31;20.00;68.50
17415;DHT22;8825;48.086;16.426;2023-08-06T12:17:58;20.00;68.70
17415;DHT22;8825;48.086;16.426;2023-08-06T12:20:26;19.90;68.80
17415;DHT22;8825;48.086;16.426;2023-08-06T12:22:55;19.90;69.00
17415;DHT22;8825;48.086;16.426;2023-08-06T12:25:22;19.90;69.30
17415;DHT22;8825;48.086;16.426;2023-08-06T12:27:50;19.90;69.40
17415;DHT22;8825;48.086;16.426;2023-08-06T12:30:18;19.80;69.40
17415;DHT22;8825;48.086;16.426;2023-08-06T12:32:45;19.80;69.50
17415;DHT22;8825;48.086;16.426;2023-08-06T12:35:13;19.80;69.50
17415;DHT22;8825;48.086;16.426;2023-08-06T12:37:41;19.80;69.50
17415;DHT22;8825;48.086;16.426;2023-08-06T12:40:10;19.80;69.60
17415;DHT22;8825;48.086;16.426;2023-08-06T12:42:38;19.80;69.60
17415;DHT22;8825;48.086;16.426;2023-08-06T12:45:06;19.90;69.60
17415;DHT22;8825;48.086;16.426;2023-08-06T12:47:33;19.90;69.70
17415;DHT22;8825;48.086;16.426;2023-08-06T12:50:01;19.90;69.60
17415;DHT22;8825;48.086;16.426;2023-08-06T12:52:28;19.90;69.60
17415;DHT22;8825;48.086;16.426;2023-08-06T12:54:56;19.90;69.80
17415;DHT22;8825;48.086;16.426;2023-08-06T12:57:23;20.00;69.80
17415;DHT22;8825;48.086;16.426;2023-08-06T12:59:51;20.00;69.80
17415;DHT22;8825;48.086;16.426;2023-08-06T13:02:18;20.00;69.70
17415;DHT22;8825;48.086;16.426;2023-08-06T13:04:47;20.00;69.70
17415;DHT22;8825;48.086;16.426;2023-08-06T13:07:14;20.10;69.70
17415;DHT22;8825;48.086;16.426;2023-08-06T13:09:42;20.10;69.70
17415;DHT22;8825;48.086;16.426;2023-08-06T13:12:09;20.20;69.70
17415;DHT22;8825;48.086;16.426;2023-08-06T13:14:37;20.20;69.70
17415;DHT22;8825;48.086;16.426;2023-08-06T13:17:04;20.20;69.70
17415;DHT22;8825;48.086;16.426;2023-08-06T13:19:34;20.30;69.50
17415;DHT22;8825;48.086;16.426;2023-08-06T13:22:03;20.30;69.50
17415;DHT22;8825;48.086;16.426;2023-08-06T13:24:32;20.40;69.50
17415;DHT22;8825;48.086;16.426;2023-08-06T13:27:01;20.40;69.40
17415;DHT22;8825;48.086;16.426;2023-08-06T13:29:29;20.40;69.30
17415;DHT22;8825;48.086;16.426;2023-08-06T13:31:56;20.50;69.20
17415;DHT22;8825;48.086;16.426;2023-08-06T13:34:24;20.60;69.30
17415;DHT22;8825;48.086;16.426;2023-08-06T13:36:51;20.60;69.20
17415;DHT22;8825;48.086;16.426;2023-08-06T13:39:19;20.70;69.20
17415;DHT22;8825;48.086;16.426;2023-08-06T13:41:47;20.80;69.90
17415;DHT22;8825;48.086;16.426;2023-08-06T13:44:14;20.80;68.90
17415;DHT22;8825;48.086;16.426;2023-08-06T13:46:42;20.90;68.70
17415;DHT22;8825;48.086;16.426;2023-08-06T13:49:10;20.90;68.70
17415;DHT22;8825;48.086;16.426;2023-08-06T13:51:38;20.90;68.40
17415;DHT22;8825;48.086;16.426;2023-08-06T13:54:06;21.00;68.10
17415;DHT22;8825;48.086;16.426;2023-08-06T13:56:34;21.00;68.00
17415;DHT22;8825;48.086;16.426;2023-08-06T13:59:03;21.00;68.00
17415;DHT22;8825;48.086;16.426;2023-08-06T14:01:31;21.10;67.90
17415;DHT22;8825;48.086;16.426;2023-08-06T14:03:58;21.10;67.60
17415;DHT22;8825;48.086;16.426;2023-08-06T14:06:26;21.20;67.20
17415;DHT22;8825;48.086;16.426;2023-08-06T14:08:53;21.20;67.00
17415;DHT22;8825;48.086;16.426;2023-08-06T14:11:21;21.30;66.60
17415;DHT22;8825;48.086;16.426;2023-08-06T14:13:48;21.30;66.40
17415;DHT22;8825;48.086;16.426;2023-08-06T14:16:16;21.40;65.80
17415;DHT22;8825;48.086;16.426;2023-08-06T14:18:43;21.40;63.70
17415;DHT22;8825;48.086;16.426;2023-08-06T14:21:11;21.40;62.20
17415;DHT22;8825;48.086;16.426;2023-08-06T14:23:39;21.40;60.80
17415;DHT22;8825;48.086;16.426;2023-08-06T14:26:08;21.40;60.50
17415;DHT22;8825;48.086;16.426;2023-08-06T14:28:37;21.40;60.40
17415;DHT22;8825;48.086;16.426;2023-08-06T14:31:04;21.40;60.20
17415;DHT22;8825;48.086;16.426;2023-08-06T14:33:33;21.50;59.70
17415;DHT22;8825;48.086;16.426;2023-08-06T14:36:00;21.50;59.00
17415;DHT22;8825;48.086;16.426;2023-08-06T14:38:28;21.50;58.60
17415;DHT22;8825;48.086;16.426;2023-08-06T14:40:56;21.50;58.70
17415;DHT22;8825;48.086;16.426;2023-08-06T14:43:23;21.50;58.60
17415;DHT22;8825;48.086;16.426;2023-08-06T14:45:51;21.50;58.90
17415;DHT22;8825;48.086;16.426;2023-08-06T14:48:18;21.60;59.10
17415;DHT22;8825;48.086;16.426;2023-08-06T14:50:46;21.50;58.50
17415;DHT22;8825;48.086;16.426;2023-08-06T14:53:13;21.50;58.70
17415;DHT22;8825;48.086;16.426;2023-08-06T14:55:41;21.50;58.80
17415;DHT22;8825;48.086;16.426;2023-08-06T14:58:09;21.50;59.00
17415;DHT22;8825;48.086;16.426;2023-08-06T15:00:36;21.50;59.20
17415;DHT22;8825;48.086;16.426;2023-08-06T15:03:04;21.40;59.00
17415;DHT22;8825;48.086;16.426;2023-08-06T15:05:31;21.40;58.80
17415;DHT22;8825;48.086;16.426;2023-08-06T15:07:59;21.40;58.70
17415;DHT22;8825;48.086;16.426;2023-08-06T15:10:27;21.40;59.00
17415;DHT22;8825;48.086;16.426;2023-08-06T15:12:54;21.40;58.90
17415;DHT22;8825;48.086;16.426;2023-08-06T15:15:22;21.40;58.60
17415;DHT22;8825;48.086;16.426;2023-08-06T15:17:49;21.40;58.60
17415;DHT22;8825;48.086;16.426;2023-08-06T15:20:20;21.40;58.50
17415;DHT22;8825;48.086;16.426;2023-08-06T15:22:47;21.30;57.70
17415;DHT22;8825;48.086;16.426;2023-08-06T15:25:16;21.30;57.40
17415;DHT22;8825;48.086;16.426;2023-08-06T15:27:45;21.30;57.60
17415;DHT22;8825;48.086;16.426;2023-08-06T15:30:12;21.30;58.40
17415;DHT22;8825;48.086;16.426;2023-08-06T15:32:39;21.30;57.60
17415;DHT22;8825;48.086;16.426;2023-08-06T15:35:09;21.20;57.50
17415;DHT22;8825;48.086;16.426;2023-08-06T15:37:36;21.20;57.20
17415;DHT22;8825;48.086;16.426;2023-08-06T15:40:04;21.20;57.40
17415;DHT22;8825;48.086;16.426;2023-08-06T15:42:32;21.20;57.50